<?xml version="1.0" encoding="UTF-8" standalone="no" ?>
<gpx xmlns="http://www.topografix.com/GPX/1/1" xmlns:xsi="http://www.w3.org/2001/XMLSchema-instance" xsi:schemaLocation="http://www.topografix.com/GPX/1/1 http://www.topografix.com/GPX/1/1/gpx.xsd" version="1.1" creator="VisuGPX - https://www.visugpx.com">
  <metadata>
    <name>Chemin de Stevenson</name>
  </metadata>
  <wpt lat="44.93307" lon="3.99991">
    <ele>929.5</ele>
  </wpt>
  <wpt lat="44.89138" lon="3.79526">
    <ele>1214</ele>
  </wpt>
  <wpt lat="44.64763" lon="3.80314">
    <ele>1118.4</ele>
  </wpt>
  <wpt lat="44.59197" lon="3.90599">
    <ele>1015.5</ele>
  </wpt>
  <wpt lat="44.51796" lon="3.7568">
    <ele>1219.7</ele>
  </wpt>
  <wpt lat="44.40347" lon="3.7465">
    <ele>1222.9</ele>
  </wpt>
  <wpt lat="44.34768" lon="3.62009">
    <ele>608.9</ele>
  </wpt>
  <wpt lat="44.27163" lon="3.73066">
    <ele>696.9</ele>
  </wpt>
  <wpt lat="44.18323" lon="3.83528">
    <ele>268.1</ele>
  </wpt>
  <wpt lat="44.10137" lon="3.89429">
    <ele>182.3</ele>
  </wpt>
  <wpt lat="44.12715" lon="4.08557">
    <ele>132.7</ele>
  </wpt>
  <wpt lat="45.04544" lon="3.89068">
    <ele>614.6</ele>
  </wpt>
  <wpt lat="44.93307" lon="3.99991">
    <ele>929.5</ele>
  </wpt>
  <wpt lat="44.89138" lon="3.79526">
    <ele>1214</ele>
  </wpt>
  <wpt lat="44.64763" lon="3.80314">
    <ele>1118.4</ele>
  </wpt>
  <wpt lat="44.59197" lon="3.90599">
    <ele>1015.5</ele>
  </wpt>
  <wpt lat="44.51796" lon="3.75678">
    <ele>1220.1</ele>
  </wpt>
  <wpt lat="44.40347" lon="3.7465">
    <ele>1222.9</ele>
  </wpt>
  <wpt lat="44.34768" lon="3.62009">
    <ele>608.9</ele>
  </wpt>
  <wpt lat="44.27163" lon="3.73066">
    <ele>696.9</ele>
  </wpt>
  <wpt lat="44.18323" lon="3.83528">
    <ele>268.1</ele>
  </wpt>
  <wpt lat="44.10137" lon="3.89429">
    <ele>182.3</ele>
  </wpt>
  <wpt lat="44.12715" lon="4.08557">
    <ele>132.7</ele>
  </wpt>
  <wpt lat="45.04544" lon="3.89068">
    <ele>614.6</ele>
  </wpt>
  <wpt lat="44.76944" lon="3.88282">
    <ele>1150.3</ele>
  </wpt>
  <trk>
    <name><![CDATA[26 juil]]></name>
    <extensions>
      <line xmlns="http://www.topografix.com/GPX/gpx_style/0/2">
        <color>f40616</color>
        <opacity>1</opacity>
        <width>3</width>
      </line>
    </extensions>
    <trkseg>
      <trkpt lat="44.18361" lon="3.83512">
        <ele>274.91</ele>
        <time>2016-06-08T11:02:33Z</time>
      </trkpt>
      <trkpt lat="44.18361" lon="3.83512">
        <ele>274.91</ele>
        <time>2016-06-08T11:02:33Z</time>
      </trkpt>
      <trkpt lat="44.18361" lon="3.83512">
        <ele>274.91</ele>
        <time>2016-06-08T11:02:33Z</time>
      </trkpt>
      <trkpt lat="44.18361" lon="3.83512">
        <ele>274.91</ele>
        <time>2016-06-08T11:02:33Z</time>
      </trkpt>
      <trkpt lat="44.18361" lon="3.83512">
        <ele>274.91</ele>
        <time>2016-06-08T11:02:33Z</time>
      </trkpt>
      <trkpt lat="44.18361" lon="3.83512">
        <ele>274.91</ele>
        <time>2016-06-08T11:02:33Z</time>
      </trkpt>
      <trkpt lat="44.18361" lon="3.83512">
        <ele>274.91</ele>
        <time>2016-06-08T11:02:33Z</time>
      </trkpt>
      <trkpt lat="44.18361" lon="3.83512">
        <ele>274.91</ele>
        <time>2016-06-08T11:02:33Z</time>
      </trkpt>
      <trkpt lat="44.18284" lon="3.83521">
        <ele>277.488</ele>
        <time>2019-03-26T07:32:31Z</time>
      </trkpt>
      <trkpt lat="44.18118" lon="3.83518">
        <ele>282.424</ele>
        <time>2016-06-08T11:02:53Z</time>
      </trkpt>
      <trkpt lat="44.18101" lon="3.83529">
        <ele>282.126</ele>
        <time>2016-06-08T11:03:13Z</time>
      </trkpt>
      <trkpt lat="44.18105" lon="3.83568">
        <ele>272.508</ele>
        <time>2016-06-08T11:03:33Z</time>
      </trkpt>
      <trkpt lat="44.18078" lon="3.83643">
        <ele>270.411</ele>
        <time>2016-06-08T11:03:53Z</time>
      </trkpt>
      <trkpt lat="44.18052" lon="3.83652">
        <ele>271.972</ele>
        <time>2016-06-08T11:04:13Z</time>
      </trkpt>
      <trkpt lat="44.17956" lon="3.83654">
        <ele>276.163</ele>
        <time>2016-06-08T11:04:33Z</time>
      </trkpt>
      <trkpt lat="44.17869" lon="3.83738">
        <ele>270.611</ele>
        <time>2016-06-08T11:04:53Z</time>
      </trkpt>
      <trkpt lat="44.17851" lon="3.83783">
        <ele>268.799</ele>
        <time>2016-06-08T11:05:13Z</time>
      </trkpt>
      <trkpt lat="44.17814" lon="3.83807">
        <ele>272.651</ele>
        <time>2016-06-08T11:05:33Z</time>
      </trkpt>
      <trkpt lat="44.17771" lon="3.8381">
        <ele>281.581</ele>
        <time>2016-06-08T11:05:53Z</time>
      </trkpt>
      <trkpt lat="44.17721" lon="3.83846">
        <ele>278.972</ele>
        <time>2016-06-08T11:06:13Z</time>
      </trkpt>
      <trkpt lat="44.17688" lon="3.83856">
        <ele>284.199</ele>
        <time>2016-06-08T11:06:33Z</time>
      </trkpt>
      <trkpt lat="44.17634" lon="3.83918">
        <ele>287.307</ele>
        <time>2016-06-08T11:06:53Z</time>
      </trkpt>
      <trkpt lat="44.17624" lon="3.83966">
        <ele>283.027</ele>
        <time>2016-06-08T11:07:13Z</time>
      </trkpt>
      <trkpt lat="44.17597" lon="3.84028">
        <ele>290.408</ele>
        <time>2016-06-08T11:07:33Z</time>
      </trkpt>
      <trkpt lat="44.1755" lon="3.8422">
        <ele>297.192</ele>
        <time>2016-06-08T11:07:53Z</time>
      </trkpt>
      <trkpt lat="44.17504" lon="3.84271">
        <ele>300.333</ele>
        <time>2016-06-08T11:08:13Z</time>
      </trkpt>
      <trkpt lat="44.17443" lon="3.84267">
        <ele>299.464</ele>
        <time>2016-06-08T11:08:33Z</time>
      </trkpt>
      <trkpt lat="44.1735" lon="3.84217">
        <ele>283.012</ele>
        <time>2016-06-08T11:08:53Z</time>
      </trkpt>
      <trkpt lat="44.17276" lon="3.84219">
        <ele>277.99</ele>
        <time>2016-06-08T11:09:13Z</time>
      </trkpt>
      <trkpt lat="44.17223" lon="3.84145">
        <ele>273.512</ele>
        <time>2016-06-08T11:09:33Z</time>
      </trkpt>
      <trkpt lat="44.17197" lon="3.84126">
        <ele>265.132</ele>
        <time>2016-06-08T11:09:53Z</time>
      </trkpt>
      <trkpt lat="44.17234" lon="3.84084">
        <ele>264.593</ele>
        <time>2016-06-08T11:10:13Z</time>
      </trkpt>
      <trkpt lat="44.17151" lon="3.83975">
        <ele>254.092</ele>
        <time>2016-06-08T11:10:33Z</time>
      </trkpt>
      <trkpt lat="44.17124" lon="3.8391">
        <ele>252.073</ele>
        <time>2016-06-08T11:10:53Z</time>
      </trkpt>
      <trkpt lat="44.17042" lon="3.83883">
        <ele>259.52</ele>
        <time>2016-06-08T11:11:13Z</time>
      </trkpt>
      <trkpt lat="44.16927" lon="3.8397">
        <ele>269.508</ele>
        <time>2016-06-08T11:11:33Z</time>
      </trkpt>
      <trkpt lat="44.16804" lon="3.84165">
        <ele>262.442</ele>
        <time>2016-06-08T11:11:53Z</time>
      </trkpt>
      <trkpt lat="44.16776" lon="3.8422">
        <ele>259.483</ele>
        <time>2016-06-08T11:12:13Z</time>
      </trkpt>
      <trkpt lat="44.16748" lon="3.84232">
        <ele>260.284</ele>
        <time>2016-06-08T11:12:33Z</time>
      </trkpt>
      <trkpt lat="44.16326" lon="3.84199">
        <ele>254.492</ele>
        <time>2016-06-08T11:12:53Z</time>
      </trkpt>
      <trkpt lat="44.16333" lon="3.84149">
        <ele>252.87</ele>
        <time>2016-06-08T11:13:13Z</time>
      </trkpt>
      <trkpt lat="44.16324" lon="3.84112">
        <ele>257.142</ele>
        <time>2016-06-08T11:13:33Z</time>
      </trkpt>
      <trkpt lat="44.16311" lon="3.84166">
        <ele>260.952</ele>
        <time>2016-06-08T11:13:53Z</time>
      </trkpt>
      <trkpt lat="44.1628" lon="3.84233">
        <ele>274.463</ele>
        <time>2016-06-08T11:14:13Z</time>
      </trkpt>
      <trkpt lat="44.16284" lon="3.8419">
        <ele>273.332</ele>
        <time>2016-06-08T11:14:33Z</time>
      </trkpt>
      <trkpt lat="44.16269" lon="3.84108">
        <ele>278.092</ele>
        <time>2016-06-08T11:14:53Z</time>
      </trkpt>
      <trkpt lat="44.16175" lon="3.8411">
        <ele>299.911</ele>
        <time>2016-06-08T11:15:13Z</time>
      </trkpt>
      <trkpt lat="44.1605" lon="3.84126">
        <ele>284.908</ele>
        <time>2016-06-08T11:15:33Z</time>
      </trkpt>
      <trkpt lat="44.15987" lon="3.84168">
        <ele>272.446</ele>
        <time>2016-06-08T11:15:53Z</time>
      </trkpt>
      <trkpt lat="44.15949" lon="3.84153">
        <ele>260.997</ele>
        <time>2016-06-08T11:16:13Z</time>
      </trkpt>
      <trkpt lat="44.1592" lon="3.84117">
        <ele>254.458</ele>
        <time>2016-06-08T11:16:33Z</time>
      </trkpt>
      <trkpt lat="44.15872" lon="3.84111">
        <ele>241.556</ele>
        <time>2016-06-08T11:16:53Z</time>
      </trkpt>
      <trkpt lat="44.15852" lon="3.8407">
        <ele>237.724</ele>
        <time>2016-06-08T11:17:13Z</time>
      </trkpt>
      <trkpt lat="44.15812" lon="3.84049">
        <ele>236.626</ele>
        <time>2016-06-08T11:17:33Z</time>
      </trkpt>
      <trkpt lat="44.15684" lon="3.84063">
        <ele>234.596</ele>
        <time>2016-06-08T11:17:53Z</time>
      </trkpt>
      <trkpt lat="44.15678" lon="3.84121">
        <ele>234.517</ele>
        <time>2016-06-08T11:18:13Z</time>
      </trkpt>
      <trkpt lat="44.15655" lon="3.84132">
        <ele>239.357</ele>
        <time>2016-06-08T11:18:33Z</time>
      </trkpt>
      <trkpt lat="44.15675" lon="3.84147">
        <ele>238.9</ele>
        <time>2016-06-08T11:18:53Z</time>
      </trkpt>
      <trkpt lat="44.15676" lon="3.84218">
        <ele>253.92</ele>
        <time>2019-03-26T07:49:11Z</time>
      </trkpt>
      <trkpt lat="44.15687" lon="3.84265">
        <ele>259.408</ele>
        <time>2019-03-26T07:49:31Z</time>
      </trkpt>
      <trkpt lat="44.15656" lon="3.84233">
        <ele>265.488</ele>
        <time>2019-03-26T07:49:51Z</time>
      </trkpt>
      <trkpt lat="44.15635" lon="3.84189">
        <ele>260.169</ele>
        <time>2019-03-26T07:50:11Z</time>
      </trkpt>
      <trkpt lat="44.15628" lon="3.84195">
        <ele>264.26</ele>
        <time>2019-03-26T07:50:31Z</time>
      </trkpt>
      <trkpt lat="44.1564" lon="3.8423">
        <ele>271.518</ele>
        <time>2019-03-26T07:50:51Z</time>
      </trkpt>
      <trkpt lat="44.15636" lon="3.84254">
        <ele>278.186</ele>
        <time>2019-03-26T07:51:11Z</time>
      </trkpt>
      <trkpt lat="44.15662" lon="3.84314">
        <ele>281</ele>
      </trkpt>
      <trkpt lat="44.15662" lon="3.8438">
        <ele>281.7</ele>
      </trkpt>
      <trkpt lat="44.15581" lon="3.84264">
        <ele>298</ele>
      </trkpt>
      <trkpt lat="44.15474" lon="3.84187">
        <ele>312.4</ele>
      </trkpt>
      <trkpt lat="44.15375" lon="3.84125">
        <ele>333.8</ele>
      </trkpt>
      <trkpt lat="44.15335" lon="3.84029">
        <ele>328</ele>
      </trkpt>
      <trkpt lat="44.1528" lon="3.8396">
        <ele>343.4</ele>
      </trkpt>
      <trkpt lat="44.15176" lon="3.83924">
        <ele>369.182</ele>
        <time>2019-03-26T07:58:51Z</time>
      </trkpt>
      <trkpt lat="44.15172" lon="3.83922">
        <ele>370.23</ele>
        <time>2016-06-08T11:23:33Z</time>
      </trkpt>
      <trkpt lat="44.15093" lon="3.83858">
        <ele>380.412</ele>
        <time>2016-06-08T11:23:53Z</time>
      </trkpt>
      <trkpt lat="44.15004" lon="3.83826">
        <ele>397.612</ele>
        <time>2016-06-08T11:24:13Z</time>
      </trkpt>
      <trkpt lat="44.14959" lon="3.83795">
        <ele>408.843</ele>
        <time>2016-06-08T11:24:33Z</time>
      </trkpt>
      <trkpt lat="44.14817" lon="3.8373">
        <ele>433.063</ele>
        <time>2016-06-08T11:24:53Z</time>
      </trkpt>
      <trkpt lat="44.14767" lon="3.83747">
        <ele>449.244</ele>
        <time>2016-06-08T11:25:13Z</time>
      </trkpt>
      <trkpt lat="44.14646" lon="3.83657">
        <ele>468.218</ele>
        <time>2016-06-08T11:25:33Z</time>
      </trkpt>
      <trkpt lat="44.14571" lon="3.83516">
        <ele>484.608</ele>
        <time>2016-06-08T11:25:53Z</time>
      </trkpt>
      <trkpt lat="44.14557" lon="3.83512">
        <ele>488.439</ele>
        <time>2016-06-08T11:26:13Z</time>
      </trkpt>
      <trkpt lat="44.14485" lon="3.83396">
        <ele>500.26</ele>
        <time>2016-06-08T11:26:33Z</time>
      </trkpt>
      <trkpt lat="44.14483" lon="3.83413">
        <ele>505.361</ele>
        <time>2016-06-08T11:26:53Z</time>
      </trkpt>
      <trkpt lat="44.14491" lon="3.83458">
        <ele>510.279</ele>
        <time>2016-06-08T11:27:13Z</time>
      </trkpt>
      <trkpt lat="44.14487" lon="3.83541">
        <ele>511.977</ele>
        <time>2016-06-08T11:27:33Z</time>
      </trkpt>
      <trkpt lat="44.14467" lon="3.83548">
        <ele>512.919</ele>
        <time>2016-06-08T11:27:53Z</time>
      </trkpt>
      <trkpt lat="44.14423" lon="3.835">
        <ele>524.099</ele>
        <time>2016-06-08T11:28:13Z</time>
      </trkpt>
      <trkpt lat="44.14364" lon="3.83508">
        <ele>517.39</ele>
        <time>2016-06-08T11:28:33Z</time>
      </trkpt>
      <trkpt lat="44.14338" lon="3.83496">
        <ele>516.639</ele>
        <time>2016-06-08T11:28:53Z</time>
      </trkpt>
      <trkpt lat="44.14308" lon="3.83454">
        <ele>528.201</ele>
        <time>2016-06-08T11:29:13Z</time>
      </trkpt>
      <trkpt lat="44.1427" lon="3.8345">
        <ele>525.121</ele>
        <time>2016-06-08T11:29:33Z</time>
      </trkpt>
      <trkpt lat="44.14224" lon="3.83421">
        <ele>544.108</ele>
        <time>2016-06-08T11:29:53Z</time>
      </trkpt>
      <trkpt lat="44.14133" lon="3.83458">
        <ele>541.916</ele>
        <time>2016-06-08T11:30:13Z</time>
      </trkpt>
      <trkpt lat="44.14051" lon="3.83429">
        <ele>560.967</ele>
        <time>2016-06-08T11:30:33Z</time>
      </trkpt>
      <trkpt lat="44.13952" lon="3.83409">
        <ele>578.3</ele>
      </trkpt>
      <trkpt lat="44.13909" lon="3.83393">
        <ele>580.366</ele>
        <time>2016-06-08T11:31:13Z</time>
      </trkpt>
      <trkpt lat="44.1386" lon="3.83413">
        <ele>578.554</ele>
        <time>2016-06-08T11:31:33Z</time>
      </trkpt>
      <trkpt lat="44.13814" lon="3.83411">
        <ele>580.466</ele>
        <time>2016-06-08T11:31:53Z</time>
      </trkpt>
      <trkpt lat="44.13771" lon="3.83389">
        <ele>590.256</ele>
        <time>2016-06-08T11:32:13Z</time>
      </trkpt>
      <trkpt lat="44.13741" lon="3.83398">
        <ele>586.647</ele>
        <time>2016-06-08T11:32:33Z</time>
      </trkpt>
      <trkpt lat="44.13625" lon="3.8353">
        <ele>578.656</ele>
        <time>2016-06-08T11:32:53Z</time>
      </trkpt>
      <trkpt lat="44.13586" lon="3.83618">
        <ele>580.2</ele>
      </trkpt>
      <trkpt lat="44.13569" lon="3.83733">
        <ele>596.014</ele>
        <time>2016-06-08T11:33:33Z</time>
      </trkpt>
      <trkpt lat="44.13544" lon="3.83804">
        <ele>596.008</ele>
        <time>2016-06-08T11:33:53Z</time>
      </trkpt>
      <trkpt lat="44.13513" lon="3.83869">
        <ele>601.398</ele>
        <time>2016-06-08T11:34:13Z</time>
      </trkpt>
      <trkpt lat="44.13501" lon="3.83967">
        <ele>591.859</ele>
        <time>2016-06-08T11:34:33Z</time>
      </trkpt>
      <trkpt lat="44.13482" lon="3.8399">
        <ele>586.26</ele>
        <time>2016-06-08T11:34:53Z</time>
      </trkpt>
      <trkpt lat="44.13475" lon="3.83981">
        <ele>584.378</ele>
        <time>2016-06-08T11:35:13Z</time>
      </trkpt>
      <trkpt lat="44.13409" lon="3.84105">
        <ele>549.166</ele>
        <time>2016-06-08T11:35:33Z</time>
      </trkpt>
      <trkpt lat="44.13389" lon="3.84058">
        <ele>544.668</ele>
        <time>2016-06-08T11:35:53Z</time>
      </trkpt>
      <trkpt lat="44.13375" lon="3.84055">
        <ele>542.358</ele>
        <time>2016-06-08T11:36:13Z</time>
      </trkpt>
      <trkpt lat="44.13359" lon="3.84045">
        <ele>543.349</ele>
        <time>2016-06-08T11:36:33Z</time>
      </trkpt>
      <trkpt lat="44.13287" lon="3.84135">
        <ele>524.692</ele>
        <time>2016-06-08T11:36:53Z</time>
      </trkpt>
      <trkpt lat="44.13256" lon="3.84147">
        <ele>524.773</ele>
        <time>2016-06-08T11:37:13Z</time>
      </trkpt>
      <trkpt lat="44.13124" lon="3.84322">
        <ele>498.92</ele>
        <time>2016-06-08T11:37:33Z</time>
      </trkpt>
      <trkpt lat="44.1309" lon="3.84346">
        <ele>489.508</ele>
        <time>2016-06-08T11:37:53Z</time>
      </trkpt>
      <trkpt lat="44.13064" lon="3.84427">
        <ele>477.282</ele>
        <time>2016-06-08T11:38:13Z</time>
      </trkpt>
      <trkpt lat="44.1302" lon="3.84502">
        <ele>470.493</ele>
        <time>2016-06-08T11:38:33Z</time>
      </trkpt>
      <trkpt lat="44.13" lon="3.84554">
        <ele>463.724</ele>
        <time>2016-06-08T11:38:53Z</time>
      </trkpt>
      <trkpt lat="44.12897" lon="3.84638">
        <ele>461.532</ele>
        <time>2016-06-08T11:39:13Z</time>
      </trkpt>
      <trkpt lat="44.12745" lon="3.84708">
        <ele>456.41</ele>
        <time>2016-06-08T11:39:33Z</time>
      </trkpt>
      <trkpt lat="44.12645" lon="3.84718">
        <ele>443.172</ele>
        <time>2016-06-08T11:39:53Z</time>
      </trkpt>
      <trkpt lat="44.12553" lon="3.84771">
        <ele>425.932</ele>
        <time>2016-06-08T11:40:13Z</time>
      </trkpt>
      <trkpt lat="44.12471" lon="3.84791">
        <ele>417.263</ele>
        <time>2016-06-08T11:40:33Z</time>
      </trkpt>
      <trkpt lat="44.12307" lon="3.84774">
        <ele>393.729</ele>
        <time>2016-06-08T11:40:53Z</time>
      </trkpt>
      <trkpt lat="44.12231" lon="3.84791">
        <ele>389</ele>
        <time>2016-06-08T11:41:13Z</time>
      </trkpt>
      <trkpt lat="44.12207" lon="3.84785">
        <ele>386.42</ele>
        <time>2016-06-08T11:41:33Z</time>
      </trkpt>
      <trkpt lat="44.1217" lon="3.84805">
        <ele>381.708</ele>
        <time>2016-06-08T11:41:53Z</time>
      </trkpt>
      <trkpt lat="44.12094" lon="3.84812">
        <ele>370.785</ele>
        <time>2016-06-08T11:42:13Z</time>
      </trkpt>
      <trkpt lat="44.12015" lon="3.84862">
        <ele>361.996</ele>
        <time>2016-06-08T11:42:33Z</time>
      </trkpt>
      <trkpt lat="44.1189" lon="3.84918">
        <ele>334.957</ele>
        <time>2016-06-08T11:42:53Z</time>
      </trkpt>
      <trkpt lat="44.11899" lon="3.84844">
        <ele>332.975</ele>
        <time>2016-06-08T11:43:13Z</time>
      </trkpt>
      <trkpt lat="44.11956" lon="3.8469">
        <ele>318.443</ele>
        <time>2016-06-08T11:43:33Z</time>
      </trkpt>
      <trkpt lat="44.12031" lon="3.84543">
        <ele>302.585</ele>
        <time>2016-06-08T11:43:53Z</time>
      </trkpt>
      <trkpt lat="44.12139" lon="3.84505">
        <ele>291.235</ele>
        <time>2016-06-08T11:44:13Z</time>
      </trkpt>
      <trkpt lat="44.12024" lon="3.84475">
        <ele>273.756</ele>
        <time>2016-06-08T11:44:33Z</time>
      </trkpt>
      <trkpt lat="44.11922" lon="3.84545">
        <ele>263.116</ele>
        <time>2016-06-08T11:44:53Z</time>
      </trkpt>
      <trkpt lat="44.1191" lon="3.84588">
        <ele>267.176</ele>
        <time>2016-06-08T11:45:13Z</time>
      </trkpt>
      <trkpt lat="44.11856" lon="3.84623">
        <ele>253.813</ele>
        <time>2016-06-08T11:45:33Z</time>
      </trkpt>
      <trkpt lat="44.11817" lon="3.84698">
        <ele>253.908</ele>
        <time>2016-06-08T11:45:53Z</time>
      </trkpt>
      <trkpt lat="44.11744" lon="3.84752">
        <ele>240.884</ele>
        <time>2016-06-08T11:46:13Z</time>
      </trkpt>
      <trkpt lat="44.11722" lon="3.84783">
        <ele>239.915</ele>
        <time>2016-06-08T11:46:33Z</time>
      </trkpt>
      <trkpt lat="44.11646" lon="3.84845">
        <ele>226.036</ele>
        <time>2016-06-08T11:46:53Z</time>
      </trkpt>
      <trkpt lat="44.11559" lon="3.84955">
        <ele>212.784</ele>
        <time>2016-06-08T11:47:13Z</time>
      </trkpt>
      <trkpt lat="44.11546" lon="3.85037">
        <ele>211.552</ele>
        <time>2016-06-08T11:47:33Z</time>
      </trkpt>
      <trkpt lat="44.11514" lon="3.85099">
        <ele>207.834</ele>
        <time>2016-06-08T11:47:53Z</time>
      </trkpt>
      <trkpt lat="44.11506" lon="3.85188">
        <ele>212.544</ele>
        <time>2016-06-08T11:48:13Z</time>
      </trkpt>
      <trkpt lat="44.11472" lon="3.85328">
        <ele>206.835</ele>
        <time>2016-06-08T11:48:33Z</time>
      </trkpt>
      <trkpt lat="44.11407" lon="3.85438">
        <ele>205.881</ele>
        <time>2016-06-08T11:48:53Z</time>
      </trkpt>
      <trkpt lat="44.11368" lon="3.85573">
        <ele>210.161</ele>
        <time>2016-06-08T11:49:13Z</time>
      </trkpt>
      <trkpt lat="44.11274" lon="3.85765">
        <ele>209.117</ele>
        <time>2016-06-08T11:49:33Z</time>
      </trkpt>
      <trkpt lat="44.11237" lon="3.86066">
        <ele>209.908</ele>
        <time>2016-06-08T11:49:53Z</time>
      </trkpt>
      <trkpt lat="44.112" lon="3.86192">
        <ele>206.241</ele>
        <time>2016-06-08T11:50:13Z</time>
      </trkpt>
      <trkpt lat="44.11224" lon="3.86297">
        <ele>204.592</ele>
        <time>2016-06-08T11:50:33Z</time>
      </trkpt>
      <trkpt lat="44.11302" lon="3.86487">
        <ele>202.733</ele>
        <time>2016-06-08T11:50:53Z</time>
      </trkpt>
      <trkpt lat="44.11382" lon="3.86766">
        <ele>195.391</ele>
        <time>2019-03-26T08:26:51Z</time>
      </trkpt>
      <trkpt lat="44.1141" lon="3.86964">
        <ele>192.449</ele>
        <time>2019-03-26T08:27:11Z</time>
      </trkpt>
      <trkpt lat="44.11394" lon="3.87174">
        <ele>199.821</ele>
        <time>2019-03-26T08:27:31Z</time>
      </trkpt>
      <trkpt lat="44.11331" lon="3.87262">
        <ele>198.341</ele>
        <time>2019-03-26T08:27:51Z</time>
      </trkpt>
      <trkpt lat="44.11237" lon="3.87326">
        <ele>197.272</ele>
        <time>2016-06-08T11:52:53Z</time>
      </trkpt>
      <trkpt lat="44.11207" lon="3.87183">
        <ele>194.931</ele>
        <time>2016-06-08T11:53:13Z</time>
      </trkpt>
      <trkpt lat="44.11157" lon="3.87205">
        <ele>199.961</ele>
        <time>2016-06-08T11:53:33Z</time>
      </trkpt>
      <trkpt lat="44.11069" lon="3.87184">
        <ele>199.807</ele>
        <time>2016-06-08T11:53:53Z</time>
      </trkpt>
      <trkpt lat="44.11002" lon="3.87183">
        <ele>203.208</ele>
        <time>2016-06-08T11:54:13Z</time>
      </trkpt>
      <trkpt lat="44.10975" lon="3.87224">
        <ele>195.386</ele>
        <time>2016-06-08T11:54:33Z</time>
      </trkpt>
      <trkpt lat="44.10905" lon="3.87215">
        <ele>204.387</ele>
        <time>2016-06-08T11:54:53Z</time>
      </trkpt>
      <trkpt lat="44.10777" lon="3.87285">
        <ele>209.848</ele>
        <time>2016-06-08T11:55:13Z</time>
      </trkpt>
      <trkpt lat="44.10707" lon="3.8735">
        <ele>212.026</ele>
        <time>2016-06-08T11:55:33Z</time>
      </trkpt>
      <trkpt lat="44.10657" lon="3.87454">
        <ele>210.124</ele>
        <time>2016-06-08T11:55:53Z</time>
      </trkpt>
      <trkpt lat="44.10619" lon="3.87579">
        <ele>198.356</ele>
        <time>2016-06-08T11:56:13Z</time>
      </trkpt>
      <trkpt lat="44.10573" lon="3.87704">
        <ele>197.276</ele>
        <time>2016-06-08T11:56:33Z</time>
      </trkpt>
      <trkpt lat="44.10503" lon="3.87828">
        <ele>189.647</ele>
        <time>2016-06-08T11:56:53Z</time>
      </trkpt>
      <trkpt lat="44.10512" lon="3.87862">
        <ele>185.792</ele>
        <time>2016-06-08T11:57:13Z</time>
      </trkpt>
      <trkpt lat="44.10436" lon="3.88037">
        <ele>186.573</ele>
        <time>2016-06-08T11:57:33Z</time>
      </trkpt>
      <trkpt lat="44.10543" lon="3.88126">
        <ele>191</ele>
      </trkpt>
      <trkpt lat="44.10523" lon="3.88217">
        <ele>192</ele>
      </trkpt>
      <trkpt lat="44.10533" lon="3.88351">
        <ele>192</ele>
      </trkpt>
      <trkpt lat="44.10485" lon="3.8843">
        <ele>191</ele>
      </trkpt>
      <trkpt lat="44.10471" lon="3.88456">
        <ele>190.8</ele>
      </trkpt>
      <trkpt lat="44.10478" lon="3.88512">
        <ele>192</ele>
      </trkpt>
      <trkpt lat="44.10475" lon="3.88545">
        <ele>191.6</ele>
      </trkpt>
      <trkpt lat="44.10441" lon="3.8855">
        <ele>190.9</ele>
      </trkpt>
      <trkpt lat="44.10444" lon="3.88655">
        <ele>191.2</ele>
      </trkpt>
      <trkpt lat="44.10341" lon="3.88827">
        <ele>188</ele>
      </trkpt>
      <trkpt lat="44.10305" lon="3.88861">
        <ele>192</ele>
      </trkpt>
      <trkpt lat="44.10238" lon="3.88887">
        <ele>189.5</ele>
      </trkpt>
      <trkpt lat="44.10211" lon="3.89084">
        <ele>193.8</ele>
      </trkpt>
      <trkpt lat="44.10185" lon="3.89138">
        <ele>193</ele>
      </trkpt>
      <trkpt lat="44.10148" lon="3.89173">
        <ele>188.2</ele>
      </trkpt>
      <trkpt lat="44.10132" lon="3.89436">
        <ele>184.5</ele>
      </trkpt>
    </trkseg>
  </trk>
</gpx>